sensor_id;sensor_type;location;lat;lon;timestamp;pressure;altitude;pressure_sealevel;temperature;humidity
60646;BME280;46462;32.608;-117.032;2022-08-18T00:00:50;99121.50;;;28.98;51.25
60646;BME280;46462;32.608;-117.032;2022-08-18T00:03:20;99127.38;;;29.08;50.96
60646;BME280;46462;32.608;-117.032;2022-08-18T00:05:50;99128.03;;;29.15;50.76
60646;BME280;46462;32.608;-117.032;2022-08-18T00:08:21;99139.63;;;27.73;52.30
60646;BME280;46462;32.608;-117.032;2022-08-18T00:10:51;99142.16;;;26.52;50.93
60646;BME280;46462;32.608;-117.032;2022-08-18T00:13:21;99145.92;;;25.42;50.90
60646;BME280;46462;32.608;-117.032;2022-08-18T00:15:51;99152.71;;;24.76;50.38
60646;BME280;46462;32.608;-117.032;2022-08-18T00:18:21;99156.90;;;24.32;50.04
60646;BME280;46462;32.608;-117.032;2022-08-18T00:20:51;99154.99;;;23.67;61.99
60646;BME280;46462;32.608;-117.032;2022-08-18T00:23:21;99153.17;;;23.64;68.48
60646;BME280;46462;32.608;-117.032;2022-08-18T00:25:52;99157.08;;;24.20;69.74
60646;BME280;46462;32.608;-117.032;2022-08-18T00:28:22;99157.97;;;24.24;71.78
60646;BME280;46462;32.608;-117.032;2022-08-18T00:30:52;99157.47;;;24.00;66.75
60646;BME280;46462;32.608;-117.032;2022-08-18T00:33:22;99155.73;;;23.63;60.42
60646;BME280;46462;32.608;-117.032;2022-08-18T00:35:52;99154.09;;;24.15;68.51
60646;BME280;46462;32.608;-117.032;2022-08-18T00:38:22;99155.48;;;24.55;69.89
60646;BME280;46462;32.608;-117.032;2022-08-18T00:40:55;99159.31;;;24.43;71.07
60646;BME280;46462;32.608;-117.032;2022-08-18T00:43:25;99154.42;;;24.43;65.69
60646;BME280;46462;32.608;-117.032;2022-08-18T00:45:53;99151.83;;;24.05;60.23
60646;BME280;46462;32.608;-117.032;2022-08-18T00:48:23;99149.41;;;23.92;68.09
60646;BME280;46462;32.608;-117.032;2022-08-18T00:50:56;99153.01;;;24.25;70.07
60646;BME280;46462;32.608;-117.032;2022-08-18T00:53:28;99152.94;;;24.33;70.30
60646;BME280;46462;32.608;-117.032;2022-08-18T00:55:55;99154.49;;;24.95;68.89
60646;BME280;46462;32.608;-117.032;2022-08-18T00:58:27;99150.00;;;24.58;63.90
60646;BME280;46462;32.608;-117.032;2022-08-18T01:00:53;99149.42;;;24.68;60.26
60646;BME280;46462;32.608;-117.032;2022-08-18T01:03:24;99152.33;;;24.40;65.33
60646;BME280;46462;32.608;-117.032;2022-08-18T01:05:59;99152.41;;;24.65;67.10
60646;BME280;46462;32.608;-117.032;2022-08-18T01:08:24;99156.42;;;24.49;63.44
60646;BME280;46462;32.608;-117.032;2022-08-18T01:10:54;99158.38;;;24.60;60.01
60646;BME280;46462;32.608;-117.032;2022-08-18T01:13:26;99158.62;;;24.48;62.86
60646;BME280;46462;32.608;-117.032;2022-08-18T01:15:54;99162.64;;;24.94;65.11
60646;BME280;46462;32.608;-117.032;2022-08-18T01:18:24;99157.91;;;25.00;61.57
60646;BME280;46462;32.608;-117.032;2022-08-18T01:21:02;99156.89;;;24.60;59.65
60646;BME280;46462;32.608;-117.032;2022-08-18T01:23:25;99160.19;;;24.33;63.26
60646;BME280;46462;32.608;-117.032;2022-08-18T01:25:55;99159.51;;;24.66;65.50
60646;BME280;46462;32.608;-117.032;2022-08-18T01:28:25;99159.41;;;25.01;65.83
60646;BME280;46462;32.608;-117.032;2022-08-18T01:30:57;99160.08;;;24.59;60.85
60646;BME280;46462;32.608;-117.032;2022-08-18T01:33:27;99165.32;;;24.77;58.07
60646;BME280;46462;32.608;-117.032;2022-08-18T01:35:55;99169.88;;;24.61;65.33
60646;BME280;46462;32.608;-117.032;2022-08-18T01:38:26;99172.03;;;24.95;65.82
60646;BME280;46462;32.608;-117.032;2022-08-18T01:40:56;99172.47;;;24.53;62.38
60646;BME280;46462;32.608;-117.032;2022-08-18T01:43:26;99177.83;;;24.24;60.14
60646;BME280;46462;32.608;-117.032;2022-08-18T01:45:56;99180.14;;;24.46;62.73
60646;BME280;46462;32.608;-117.032;2022-08-18T01:48:26;99180.00;;;24.51;65.86
60646;BME280;46462;32.608;-117.032;2022-08-18T01:50:56;99182.17;;;24.64;67.23
60646;BME280;46462;32.608;-117.032;2022-08-18T01:53:26;99182.96;;;24.73;67.99
60646;BME280;46462;32.608;-117.032;2022-08-18T01:55:57;99185.46;;;25.00;65.28
60646;BME280;46462;32.608;-117.032;2022-08-18T01:58:27;99181.56;;;24.87;60.44
60646;BME280;46462;32.608;-117.032;2022-08-18T02:00:58;99180.05;;;24.45;64.20
60646;BME280;46462;32.608;-117.032;2022-08-18T02:03:30;99183.34;;;24.54;66.87
60646;BME280;46462;32.608;-117.032;2022-08-18T02:06:01;99166.98;;;25.00;66.11
60646;BME280;46462;32.608;-117.032;2022-08-18T02:08:28;99169.58;;;26.28;61.04
60646;BME280;46462;32.608;-117.032;2022-08-18T02:10:57;99170.82;;;27.03;58.41
60646;BME280;46462;32.608;-117.032;2022-08-18T02:13:28;99168.04;;;27.51;56.64
60646;BME280;46462;32.608;-117.032;2022-08-18T02:15:58;99171.99;;;27.80;55.62
60646;BME280;46462;32.608;-117.032;2022-08-18T02:18:31;99171.69;;;28.03;54.87
60646;BME280;46462;32.608;-117.032;2022-08-18T02:21:04;99174.46;;;28.20;54.20
60646;BME280;46462;32.608;-117.032;2022-08-18T02:23:28;99177.19;;;28.35;53.53
60646;BME280;46462;32.608;-117.032;2022-08-18T02:26:00;99181.81;;;28.45;53.16
60646;BME280;46462;32.608;-117.032;2022-08-18T02:28:28;99185.27;;;28.56;52.78
60646;BME280;46462;32.608;-117.032;2022-08-18T02:31:04;99192.56;;;28.61;52.77
60646;BME280;46462;32.608;-117.032;2022-08-18T02:33:28;99189.76;;;28.68;52.67
60646;BME280;46462;32.608;-117.032;2022-08-18T02:35:59;99191.33;;;28.72;52.58
60646;BME280;46462;32.608;-117.032;2022-08-18T02:38:29;99192.78;;;28.76;52.27
60646;BME280;46462;32.608;-117.032;2022-08-18T02:41:01;99201.21;;;28.80;52.03
60646;BME280;46462;32.608;-117.032;2022-08-18T02:43:29;99210.61;;;28.84;51.98
60646;BME280;46462;32.608;-117.032;2022-08-18T02:45:59;99218.23;;;28.86;51.73
60646;BME280;46462;32.608;-117.032;2022-08-18T02:48:29;99217.87;;;28.90;51.65
60646;BME280;46462;32.608;-117.032;2022-08-18T02:51:02;99216.54;;;28.94;51.49
60646;BME280;46462;32.608;-117.032;2022-08-18T02:53:30;99220.87;;;28.96;51.45
60646;BME280;46462;32.608;-117.032;2022-08-18T02:56:07;99226.03;;;28.99;51.34
60646;BME280;46462;32.608;-117.032;2022-08-18T02:58:30;99230.62;;;29.02;51.37
60646;BME280;46462;32.608;-117.032;2022-08-18T03:01:00;99227.87;;;29.03;51.37
60646;BME280;46462;32.608;-117.032;2022-08-18T03:03:30;99224.99;;;29.02;51.22
60646;BME280;46462;32.608;-117.032;2022-08-18T03:06:00;99229.99;;;29.08;51.08
60646;BME280;46462;32.608;-117.032;2022-08-18T03:08:30;99231.46;;;29.08;51.07
60646;BME280;46462;32.608;-117.032;2022-08-18T03:11:00;99235.67;;;29.09;51.10
60646;BME280;46462;32.608;-117.032;2022-08-18T03:13:30;99236.43;;;29.10;51.05
60646;BME280;46462;32.608;-117.032;2022-08-18T03:16:00;99239.66;;;29.13;50.99
60646;BME280;46462;32.608;-117.032;2022-08-18T03:18:30;99241.24;;;29.14;50.98
60646;BME280;46462;32.608;-117.032;2022-08-18T03:21:05;99245.17;;;29.13;50.99
60646;BME280;46462;32.608;-117.032;2022-08-18T03:23:31;99249.81;;;29.16;50.91
60646;BME280;46462;32.608;-117.032;2022-08-18T03:26:01;99247.71;;;29.19;50.85
60646;BME280;46462;32.608;-117.032;2022-08-18T03:28:31;99246.66;;;29.21;50.71
60646;BME280;46462;32.608;-117.032;2022-08-18T03:31:01;99243.13;;;29.21;50.71
60646;BME280;46462;32.608;-117.032;2022-08-18T03:33:31;99241.94;;;29.21;50.73
60646;BME280;46462;32.608;-117.032;2022-08-18T03:36:04;99246.12;;;29.23;50.67
60646;BME280;46462;32.608;-117.032;2022-08-18T03:38:32;99255.25;;;29.22;50.69
60646;BME280;46462;32.608;-117.032;2022-08-18T03:41:01;99259.35;;;29.22;50.74
60646;BME280;46462;32.608;-117.032;2022-08-18T03:43:32;99259.99;;;29.23;50.70
60646;BME280;46462;32.608;-117.032;2022-08-18T03:46:03;99263.80;;;29.27;50.57
60646;BME280;46462;32.608;-117.032;2022-08-18T03:48:32;99267.87;;;29.27;50.57
60646;BME280;46462;32.608;-117.032;2022-08-18T03:51:04;99272.16;;;29.27;50.54
60646;BME280;46462;32.608;-117.032;2022-08-18T03:53:33;99274.78;;;29.29;50.50
60646;BME280;46462;32.608;-117.032;2022-08-18T03:56:07;99275.75;;;29.30;50.45
60646;BME280;46462;32.608;-117.032;2022-08-18T03:58:33;99276.27;;;29.30;50.46
60646;BME280;46462;32.608;-117.032;2022-08-18T04:01:02;99279.26;;;29.30;50.43
60646;BME280;46462;32.608;-117.032;2022-08-18T04:03:33;99280.87;;;29.31;50.42
60646;BME280;46462;32.608;-117.032;2022-08-18T04:06:03;99276.85;;;29.32;50.39
60646;BME280;46462;32.608;-117.032;2022-08-18T04:08:33;99278.15;;;29.33;50.39
60646;BME280;46462;32.608;-117.032;2022-08-18T04:11:03;99278.87;;;29.34;50.34
60646;BME280;46462;32.608;-117.032;2022-08-18T04:13:33;99281.05;;;29.35;50.31
60646;BME280;46462;32.608;-117.032;2022-08-18T04:16:03;99284.02;;;29.37;50.24
60646;BME280;46462;32.608;-117.032;2022-08-18T04:18:33;99286.14;;;29.35;50.30
60646;BME280;46462;32.608;-117.032;2022-08-18T04:21:05;99288.94;;;29.36;50.22
60646;BME280;46462;32.608;-117.032;2022-08-18T04:23:34;99290.65;;;29.38;50.15
60646;BME280;46462;32.608;-117.032;2022-08-18T04:26:05;99295.32;;;29.39;50.12
60646;BME280;46462;32.608;-117.032;2022-08-18T04:28:34;99298.91;;;29.39;50.11
60646;BME280;46462;32.608;-117.032;2022-08-18T04:31:07;99297.14;;;29.41;50.08
60646;BME280;46462;32.608;-117.032;2022-08-18T04:33:34;99292.12;;;29.42;50.03
60646;BME280;46462;32.608;-117.032;2022-08-18T04:36:08;99288.26;;;29.42;50.00
60646;BME280;46462;32.608;-117.032;2022-08-18T04:38:34;99286.88;;;29.43;49.94
60646;BME280;46462;32.608;-117.032;2022-08-18T04:41:05;99288.99;;;29.45;49.86
60646;BME280;46462;32.608;-117.032;2022-08-18T04:43:35;99290.75;;;29.45;49.93
60646;BME280;46462;32.608;-117.032;2022-08-18T04:46:05;99292.90;;;29.46;49.85
60646;BME280;46462;32.608;-117.032;2022-08-18T04:48:37;99302.63;;;29.46;49.79
60646;BME280;46462;32.608;-117.032;2022-08-18T04:51:06;99307.82;;;29.47;49.80
60646;BME280;46462;32.608;-117.032;2022-08-18T04:53:36;99309.65;;;29.48;49.78
60646;BME280;46462;32.608;-117.032;2022-08-18T04:56:05;99316.62;;;29.51;49.65
60646;BME280;46462;32.608;-117.032;2022-08-18T04:58:35;99324.27;;;29.51;49.64
60646;BME280;46462;32.608;-117.032;2022-08-18T05:01:05;99323.10;;;29.50;49.67
60646;BME280;46462;32.608;-117.032;2022-08-18T05:03:35;99321.51;;;29.51;49.63
60646;BME280;46462;32.608;-117.032;2022-08-18T05:06:06;99323.91;;;29.51;49.66
60646;BME280;46462;32.608;-117.032;2022-08-18T05:08:36;99328.71;;;29.50;49.65
60646;BME280;46462;32.608;-117.032;2022-08-18T05:11:07;99326.76;;;29.51;49.57
60646;BME280;46462;32.608;-117.032;2022-08-18T05:13:36;99322.51;;;29.51;49.55
60646;BME280;46462;32.608;-117.032;2022-08-18T05:16:06;99319.04;;;29.52;49.52
60646;BME280;46462;32.608;-117.032;2022-08-18T05:18:36;99318.88;;;29.51;49.53
60646;BME280;46462;32.608;-117.032;2022-08-18T05:21:07;99321.18;;;29.51;49.60
60646;BME280;46462;32.608;-117.032;2022-08-18T05:23:36;99319.94;;;29.52;49.52
60646;BME280;46462;32.608;-117.032;2022-08-18T05:26:07;99319.36;;;29.53;49.46
60646;BME280;46462;32.608;-117.032;2022-08-18T05:28:37;99320.49;;;29.54;49.39
60646;BME280;46462;32.608;-117.032;2022-08-18T05:31:08;99322.31;;;29.54;49.39
60646;BME280;46462;32.608;-117.032;2022-08-18T05:33:37;99326.16;;;29.54;49.36
60646;BME280;46462;32.608;-117.032;2022-08-18T05:36:28;99330.14;;;29.54;49.32
60646;BME280;46462;32.608;-117.032;2022-08-18T05:38:44;99333.68;;;29.53;49.33
60646;BME280;46462;32.608;-117.032;2022-08-18T05:41:10;99330.68;;;29.53;49.31
60646;BME280;46462;32.608;-117.032;2022-08-18T05:43:39;99320.36;;;29.53;49.24
60646;BME280;46462;32.608;-117.032;2022-08-18T05:46:09;99315.83;;;29.53;49.34
60646;BME280;46462;32.608;-117.032;2022-08-18T05:48:37;99315.93;;;29.53;49.28
60646;BME280;46462;32.608;-117.032;2022-08-18T05:51:15;99322.04;;;29.53;49.22
60646;BME280;46462;32.608;-117.032;2022-08-18T05:53:38;99324.33;;;29.54;49.16
60646;BME280;46462;32.608;-117.032;2022-08-18T05:56:10;99323.34;;;29.54;49.19
60646;BME280;46462;32.608;-117.032;2022-08-18T05:58:40;99317.81;;;29.54;49.20
60646;BME280;46462;32.608;-117.032;2022-08-18T06:01:14;99312.84;;;29.55;49.12
60646;BME280;46462;32.608;-117.032;2022-08-18T06:03:44;99308.62;;;29.54;49.15
60646;BME280;46462;32.608;-117.032;2022-08-18T06:06:12;99312.44;;;29.53;49.14
60646;BME280;46462;32.608;-117.032;2022-08-18T06:08:42;99311.26;;;29.52;49.21
60646;BME280;46462;32.608;-117.032;2022-08-18T06:11:09;99306.67;;;29.52;49.25
60646;BME280;46462;32.608;-117.032;2022-08-18T06:13:41;99301.92;;;29.52;49.15
60646;BME280;46462;32.608;-117.032;2022-08-18T06:16:13;99305.05;;;29.53;49.12
60646;BME280;46462;32.608;-117.032;2022-08-18T06:18:44;99305.33;;;29.51;49.15
60646;BME280;46462;32.608;-117.032;2022-08-18T06:21:18;99308.79;;;29.52;49.10
60646;BME280;46462;32.608;-117.032;2022-08-18T06:23:45;99312.38;;;29.53;48.98
60646;BME280;46462;32.608;-117.032;2022-08-18T06:26:16;99315.26;;;29.55;48.91
60646;BME280;46462;32.608;-117.032;2022-08-18T06:28:50;99310.96;;;29.54;48.90
60646;BME280;46462;32.608;-117.032;2022-08-18T06:31:15;99311.36;;;29.54;48.88
60646;BME280;46462;32.608;-117.032;2022-08-18T06:33:48;99312.47;;;29.53;48.90
60646;BME280;46462;32.608;-117.032;2022-08-18T06:36:15;99316.25;;;29.53;48.87
60646;BME280;46462;32.608;-117.032;2022-08-18T06:39:02;99319.78;;;29.52;48.83
60646;BME280;46462;32.608;-117.032;2022-08-18T06:41:14;99318.52;;;29.53;48.81
60646;BME280;46462;32.608;-117.032;2022-08-18T06:43:52;99313.92;;;29.53;48.75
60646;BME280;46462;32.608;-117.032;2022-08-18T06:46:14;99316.86;;;29.54;48.74
60646;BME280;46462;32.608;-117.032;2022-08-18T06:48:46;99317.96;;;29.52;48.74
60646;BME280;46462;32.608;-117.032;2022-08-18T06:51:11;99317.57;;;29.53;48.71
60646;BME280;46462;32.608;-117.032;2022-08-18T06:56:20;99317.46;;;29.52;48.76
60646;BME280;46462;32.608;-117.032;2022-08-18T06:58:40;99315.10;;;29.53;48.68
60646;BME280;46462;32.608;-117.032;2022-08-18T07:01:10;99321.44;;;29.51;48.70
60646;BME280;46462;32.608;-117.032;2022-08-18T07:03:45;99323.54;;;29.51;48.76
60646;BME280;46462;32.608;-117.032;2022-08-18T07:08:47;99327.45;;;29.52;48.64
60646;BME280;46462;32.608;-117.032;2022-08-18T07:11:13;99328.28;;;29.53;48.58
60646;BME280;46462;32.608;-117.032;2022-08-18T07:13:42;99329.85;;;29.50;48.64
60646;BME280;46462;32.608;-117.032;2022-08-18T07:16:18;99324.06;;;29.50;48.70
60646;BME280;46462;32.608;-117.032;2022-08-18T07:18:41;99323.31;;;29.50;48.58
60646;BME280;46462;32.608;-117.032;2022-08-18T07:23:41;99321.40;;;29.51;48.68
60646;BME280;46462;32.608;-117.032;2022-08-18T07:26:13;99320.17;;;29.51;48.49
60646;BME280;46462;32.608;-117.032;2022-08-18T07:28:44;99318.38;;;29.50;48.48
60646;BME280;46462;32.608;-117.032;2022-08-18T07:31:22;99317.83;;;29.49;48.46
60646;BME280;46462;32.608;-117.032;2022-08-18T07:33:46;99320.38;;;29.50;48.57
60646;BME280;46462;32.608;-117.032;2022-08-18T07:36:13;99319.32;;;29.50;48.49
60646;BME280;46462;32.608;-117.032;2022-08-18T07:38:47;99316.62;;;29.49;48.55
60646;BME280;46462;32.608;-117.032;2022-08-18T07:41:15;99314.09;;;29.49;48.44
60646;BME280;46462;32.608;-117.032;2022-08-18T07:43:51;99307.66;;;29.48;48.47
60646;BME280;46462;32.608;-117.032;2022-08-18T07:46:20;99306.43;;;29.48;48.46
60646;BME280;46462;32.608;-117.032;2022-08-18T07:48:43;99308.33;;;29.48;48.46
60646;BME280;46462;32.608;-117.032;2022-08-18T07:51:18;99309.43;;;29.47;48.48
60646;BME280;46462;32.608;-117.032;2022-08-18T07:53:52;99308.29;;;29.46;48.35
60646;BME280;46462;32.608;-117.032;2022-08-18T07:56:17;99310.54;;;29.48;48.33
60646;BME280;46462;32.608;-117.032;2022-08-18T07:58:46;99315.33;;;29.48;48.24
60646;BME280;46462;32.608;-117.032;2022-08-18T08:01:19;99313.69;;;29.48;48.34
60646;BME280;46462;32.608;-117.032;2022-08-18T08:03:49;99309.97;;;29.47;48.26
60646;BME280;46462;32.608;-117.032;2022-08-18T08:06:18;99305.90;;;29.46;48.15
60646;BME280;46462;32.608;-117.032;2022-08-18T08:08:47;99304.16;;;29.47;48.19
60646;BME280;46462;32.608;-117.032;2022-08-18T08:11:22;99302.65;;;29.47;48.18
60646;BME280;46462;32.608;-117.032;2022-08-18T08:13:55;99303.88;;;29.46;48.14
60646;BME280;46462;32.608;-117.032;2022-08-18T08:16:21;99304.72;;;29.48;48.11
60646;BME280;46462;32.608;-117.032;2022-08-18T08:18:51;99301.97;;;29.49;48.10
60646;BME280;46462;32.608;-117.032;2022-08-18T08:21:16;99300.21;;;29.47;48.11
60646;BME280;46462;32.608;-117.032;2022-08-18T08:23:49;99298.22;;;29.49;48.09
60646;BME280;46462;32.608;-117.032;2022-08-18T08:26:22;99295.81;;;29.49;47.95
60646;BME280;46462;32.608;-117.032;2022-08-18T08:28:51;99290.28;;;29.46;47.93
60646;BME280;46462;32.608;-117.032;2022-08-18T08:31:23;99286.41;;;29.47;48.11
60646;BME280;46462;32.608;-117.032;2022-08-18T08:33:48;99284.17;;;29.46;47.91
60646;BME280;46462;32.608;-117.032;2022-08-18T08:36:18;99279.45;;;29.47;47.88
60646;BME280;46462;32.608;-117.032;2022-08-18T08:38:48;99271.96;;;29.47;47.79
60646;BME280;46462;32.608;-117.032;2022-08-18T08:41:21;99272.10;;;29.44;47.89
60646;BME280;46462;32.608;-117.032;2022-08-18T08:46:19;99268.89;;;29.46;47.83
60646;BME280;46462;32.608;-117.032;2022-08-18T08:48:48;99269.26;;;29.45;47.80
60646;BME280;46462;32.608;-117.032;2022-08-18T08:51:26;99263.64;;;29.46;47.73
60646;BME280;46462;32.608;-117.032;2022-08-18T08:53:48;99258.30;;;29.45;47.75
60646;BME280;46462;32.608;-117.032;2022-08-18T08:56:17;99255.81;;;29.46;47.64
60646;BME280;46462;32.608;-117.032;2022-08-18T08:58:49;99257.16;;;29.47;47.62
60646;BME280;46462;32.608;-117.032;2022-08-18T09:01:23;99257.69;;;29.46;47.58
60646;BME280;46462;32.608;-117.032;2022-08-18T09:03:52;99262.53;;;29.47;47.62
60646;BME280;46462;32.608;-117.032;2022-08-18T09:06:24;99263.49;;;29.46;47.62
60646;BME280;46462;32.608;-117.032;2022-08-18T09:08:56;99265.94;;;29.44;47.68
60646;BME280;46462;32.608;-117.032;2022-08-18T09:11:25;99270.26;;;29.44;47.67
60646;BME280;46462;32.608;-117.032;2022-08-18T09:16:26;99279.61;;;29.44;47.48
60646;BME280;46462;32.608;-117.032;2022-08-18T09:18:54;99280.57;;;29.46;47.50
60646;BME280;46462;32.608;-117.032;2022-08-18T09:21:26;99276.76;;;29.46;47.39
60646;BME280;46462;32.608;-117.032;2022-08-18T09:23:49;99274.25;;;29.44;47.53
60646;BME280;46462;32.608;-117.032;2022-08-18T09:26:21;99270.90;;;29.46;47.47
60646;BME280;46462;32.608;-117.032;2022-08-18T09:28:53;99268.03;;;29.48;47.41
60646;BME280;46462;32.608;-117.032;2022-08-18T09:31:17;99270.88;;;29.42;47.50
60646;BME280;46462;32.608;-117.032;2022-08-18T09:36:31;99272.77;;;29.44;47.40
60646;BME280;46462;32.608;-117.032;2022-08-18T09:38:50;99270.96;;;29.41;47.48
60646;BME280;46462;32.608;-117.032;2022-08-18T09:41:21;99267.80;;;29.43;47.42
60646;BME280;46462;32.608;-117.032;2022-08-18T09:43:54;99266.50;;;29.39;47.39
60646;BME280;46462;32.608;-117.032;2022-08-18T09:48:48;99272.75;;;29.35;47.48
60646;BME280;46462;32.608;-117.032;2022-08-18T09:53:55;99278.23;;;29.39;47.16
60646;BME280;46462;32.608;-117.032;2022-08-18T09:58:53;99270.43;;;29.34;47.37
60646;BME280;46462;32.608;-117.032;2022-08-18T10:01:24;99262.71;;;29.35;47.22
60646;BME280;46462;32.608;-117.032;2022-08-18T10:06:19;99255.27;;;29.35;47.33
60646;BME280;46462;32.608;-117.032;2022-08-18T10:08:56;99251.91;;;29.29;47.56
60646;BME280;46462;32.608;-117.032;2022-08-18T10:11:30;99250.44;;;29.31;47.43
60646;BME280;46462;32.608;-117.032;2022-08-18T10:13:57;99249.55;;;29.29;47.38
60646;BME280;46462;32.608;-117.032;2022-08-18T10:16:25;99251.13;;;29.28;47.41
60646;BME280;46462;32.608;-117.032;2022-08-18T10:18:56;99250.42;;;29.27;47.51
60646;BME280;46462;32.608;-117.032;2022-08-18T10:21:21;99246.78;;;29.29;47.37
60646;BME280;46462;32.608;-117.032;2022-08-18T10:23:53;99241.64;;;29.27;47.32
60646;BME280;46462;32.608;-117.032;2022-08-18T10:28:55;99238.83;;;29.29;47.36
60646;BME280;46462;32.608;-117.032;2022-08-18T10:31:20;99238.52;;;29.26;47.27
60646;BME280;46462;32.608;-117.032;2022-08-18T10:38:50;99239.44;;;29.21;47.40
60646;BME280;46462;32.608;-117.032;2022-08-18T10:41:24;99236.04;;;29.21;47.34
60646;BME280;46462;32.608;-117.032;2022-08-18T10:43:52;99232.34;;;29.20;47.34
60646;BME280;46462;32.608;-117.032;2022-08-18T10:46:22;99229.03;;;29.22;47.31
60646;BME280;46462;32.608;-117.032;2022-08-18T10:48:59;99233.21;;;29.20;47.23
60646;BME280;46462;32.608;-117.032;2022-08-18T10:51:27;99239.73;;;29.19;47.27
60646;BME280;46462;32.608;-117.032;2022-08-18T10:53:57;99238.32;;;29.16;47.37
60646;BME280;46462;32.608;-117.032;2022-08-18T10:56:27;99236.39;;;29.20;47.29
60646;BME280;46462;32.608;-117.032;2022-08-18T10:59:02;99235.73;;;29.18;47.32
60646;BME280;46462;32.608;-117.032;2022-08-18T11:01:33;99234.97;;;29.18;47.22
60646;BME280;46462;32.608;-117.032;2022-08-18T11:04:00;99233.17;;;29.20;47.24
60646;BME280;46462;32.608;-117.032;2022-08-18T11:06:23;99232.41;;;29.17;47.23
60646;BME280;46462;32.608;-117.032;2022-08-18T11:08:54;99228.55;;;29.15;47.24
60646;BME280;46462;32.608;-117.032;2022-08-18T11:11:25;99229.33;;;29.19;47.04
60646;BME280;46462;32.608;-117.032;2022-08-18T11:14:02;99223.40;;;29.04;47.44
60646;BME280;46462;32.608;-117.032;2022-08-18T11:16:31;99224.49;;;29.11;47.35
60646;BME280;46462;32.608;-117.032;2022-08-18T11:18:57;99224.36;;;29.15;47.18
60646;BME280;46462;32.608;-117.032;2022-08-18T11:21:23;99220.98;;;29.15;47.10
60646;BME280;46462;32.608;-117.032;2022-08-18T11:26:22;99221.05;;;29.15;47.18
60646;BME280;46462;32.608;-117.032;2022-08-18T11:28:52;99218.67;;;29.13;47.10
60646;BME280;46462;32.608;-117.032;2022-08-18T11:31:22;99216.02;;;29.08;47.18
60646;BME280;46462;32.608;-117.032;2022-08-18T11:33:52;99215.42;;;29.07;47.17
60646;BME280;46462;32.608;-117.032;2022-08-18T11:36:29;99214.09;;;29.05;47.21
60646;BME280;46462;32.608;-117.032;2022-08-18T11:38:54;99213.27;;;29.06;47.22
60646;BME280;46462;32.608;-117.032;2022-08-18T11:41:26;99210.33;;;29.04;47.29
60646;BME280;46462;32.608;-117.032;2022-08-18T11:43:57;99212.46;;;29.04;47.28
60646;BME280;46462;32.608;-117.032;2022-08-18T11:46:27;99218.04;;;29.11;47.05
60646;BME280;46462;32.608;-117.032;2022-08-18T11:48:53;99219.31;;;29.02;47.22
60646;BME280;46462;32.608;-117.032;2022-08-18T11:51:25;99219.85;;;29.13;47.00
60646;BME280;46462;32.608;-117.032;2022-08-18T11:53:57;99215.05;;;29.15;46.86
60646;BME280;46462;32.608;-117.032;2022-08-18T11:56:25;99209.76;;;29.07;46.99
60646;BME280;46462;32.608;-117.032;2022-08-18T11:58:56;99211.90;;;29.16;46.82
60646;BME280;46462;32.608;-117.032;2022-08-18T12:01:29;99207.44;;;29.06;46.90
60646;BME280;46462;32.608;-117.032;2022-08-18T12:03:54;99207.29;;;29.12;46.80
60646;BME280;46462;32.608;-117.032;2022-08-18T12:06:26;99203.97;;;29.08;46.85
60646;BME280;46462;32.608;-117.032;2022-08-18T12:08:58;99202.13;;;28.92;47.26
60646;BME280;46462;32.608;-117.032;2022-08-18T12:11:27;99200.97;;;28.93;47.25
60646;BME280;46462;32.608;-117.032;2022-08-18T12:14:01;99201.16;;;28.97;47.05
60646;BME280;46462;32.608;-117.032;2022-08-18T12:16:31;99201.47;;;29.00;46.99
60646;BME280;46462;32.608;-117.032;2022-08-18T12:18:55;99205.31;;;29.04;46.88
60646;BME280;46462;32.608;-117.032;2022-08-18T12:21:25;99204.68;;;28.95;46.95
60646;BME280;46462;32.608;-117.032;2022-08-18T12:23:55;99206.29;;;28.98;46.93
60646;BME280;46462;32.608;-117.032;2022-08-18T12:26:25;99206.65;;;28.98;46.95
60646;BME280;46462;32.608;-117.032;2022-08-18T12:28:55;99209.66;;;28.97;46.97
60646;BME280;46462;32.608;-117.032;2022-08-18T12:31:25;99209.83;;;28.94;46.99
60646;BME280;46462;32.608;-117.032;2022-08-18T12:33:55;99211.13;;;29.01;46.76
60646;BME280;46462;32.608;-117.032;2022-08-18T12:36:26;99215.72;;;29.04;46.73
60646;BME280;46462;32.608;-117.032;2022-08-18T12:38:55;99218.02;;;28.98;46.92
60646;BME280;46462;32.608;-117.032;2022-08-18T12:41:26;99219.69;;;29.01;46.70
60646;BME280;46462;32.608;-117.032;2022-08-18T12:43:56;99219.26;;;28.99;46.86
60646;BME280;46462;32.608;-117.032;2022-08-18T12:46:26;99222.79;;;29.01;46.70
60646;BME280;46462;32.608;-117.032;2022-08-18T12:48:56;99222.05;;;28.98;46.76
60646;BME280;46462;32.608;-117.032;2022-08-18T12:51:26;99226.07;;;28.99;46.66
60646;BME280;46462;32.608;-117.032;2022-08-18T12:53:56;99228.69;;;29.00;46.69
60646;BME280;46462;32.608;-117.032;2022-08-18T12:56:28;99232.48;;;28.97;46.74
60646;BME280;46462;32.608;-117.032;2022-08-18T12:58:59;99231.39;;;29.04;46.55
60646;BME280;46462;32.608;-117.032;2022-08-18T13:01:27;99233.97;;;29.04;46.48
60646;BME280;46462;32.608;-117.032;2022-08-18T13:03:57;99233.22;;;28.96;46.72
60646;BME280;46462;32.608;-117.032;2022-08-18T13:06:27;99230.62;;;28.97;46.54
60646;BME280;46462;32.608;-117.032;2022-08-18T13:08:57;99232.52;;;28.95;46.70
60646;BME280;46462;32.608;-117.032;2022-08-18T13:11:27;99238.36;;;28.95;46.62
60646;BME280;46462;32.608;-117.032;2022-08-18T13:13:57;99246.40;;;28.97;46.59
60646;BME280;46462;32.608;-117.032;2022-08-18T13:16:28;99247.70;;;29.00;46.49
60646;BME280;46462;32.608;-117.032;2022-08-18T13:18:57;99242.57;;;28.96;46.46